createdAt,value
2023-02-18T00:00:58.935Z,6.18
2023-02-18T00:03:27.458Z,6.10
2023-02-18T00:05:54.261Z,6.08
2023-02-18T00:08:22.070Z,6.33
2023-02-18T00:10:49.599Z,6.18
2023-02-18T00:13:16.305Z,6.21
2023-02-18T00:15:43.047Z,6.35
2023-02-18T00:18:09.778Z,6.30
2023-02-18T00:20:39.335Z,6.25
2023-02-18T00:23:06.038Z,6.34
2023-02-18T00:25:32.769Z,6.44
2023-02-18T00:27:59.443Z,6.43
2023-02-18T00:30:26.239Z,6.27
2023-02-18T00:32:52.968Z,6.34
2023-02-18T00:35:19.881Z,6.17
2023-02-18T00:37:46.573Z,6.20
2023-02-18T00:40:13.430Z,6.28
2023-02-18T00:42:40.126Z,6.37
2023-02-18T00:45:07.333Z,6.26
2023-02-18T00:47:34.040Z,6.24
2023-02-18T00:50:00.776Z,6.34
2023-02-18T00:52:27.460Z,6.21
2023-02-18T00:54:54.164Z,6.42
2023-02-18T00:57:20.835Z,6.42
2023-02-18T00:59:47.564Z,6.77
2023-02-18T01:02:14.243Z,6.75
2023-02-18T01:04:41.057Z,7.19
2023-02-18T01:07:10.421Z,6.94
2023-02-18T01:09:37.156Z,6.94
2023-02-18T01:12:03.933Z,6.86
2023-02-18T01:14:30.597Z,6.75
2023-02-18T01:16:57.328Z,6.65
2023-02-18T01:19:24.027Z,6.55
2023-02-18T01:21:50.760Z,6.39
2023-02-18T01:24:17.458Z,6.52
2023-02-18T01:26:44.167Z,6.28
2023-02-18T01:29:10.872Z,6.42
2023-02-18T01:31:37.721Z,6.49
2023-02-18T01:34:04.598Z,6.57
2023-02-18T01:36:31.352Z,7.08
2023-02-18T01:38:58.136Z,7.58
2023-02-18T01:41:25.193Z,7.39
2023-02-18T01:44:21.536Z,6.97
2023-02-18T01:46:49.342Z,6.70
2023-02-18T01:49:19.259Z,6.63
2023-02-18T01:51:51.609Z,6.76
2023-02-18T01:54:34.554Z,6.98
2023-02-18T01:57:11.112Z,7.28
2023-02-18T01:59:50.392Z,7.52
2023-02-18T02:02:22.052Z,7.83
2023-02-18T02:04:49.589Z,7.59
2023-02-18T02:07:18.403Z,7.50
2023-02-18T02:09:45.473Z,7.36
2023-02-18T02:12:21.442Z,7.64
2023-02-18T02:15:03.155Z,7.38
2023-02-18T02:17:54.431Z,7.09
2023-02-18T02:20:39.677Z,7.22
2023-02-18T02:23:32.237Z,7.85
2023-02-18T02:26:29.961Z,7.98
2023-02-18T02:29:15.166Z,7.89
2023-02-18T02:32:07.952Z,7.42
2023-02-18T02:34:52.675Z,7.33
2023-02-18T02:37:45.115Z,7.65
2023-02-18T02:40:33.459Z,7.10
2023-02-18T02:43:12.311Z,7.39
2023-02-18T02:45:45.191Z,7.50
2023-02-18T02:48:11.841Z,7.41
2023-02-18T02:51:11.634Z,7.09
2023-02-18T02:53:41.885Z,7.44
2023-02-18T02:56:20.437Z,7.41
2023-02-18T02:59:01.969Z,7.40
2023-02-18T03:01:57.919Z,7.58
2023-02-18T03:04:59.238Z,7.92
2023-02-18T03:07:34.830Z,8.28
2023-02-18T03:10:22.834Z,8.53
2023-02-18T03:13:00.870Z,8.49
2023-02-18T03:15:48.068Z,8.02
2023-02-18T03:18:41.878Z,7.94
2023-02-18T03:21:13.290Z,7.79
2023-02-18T03:24:09.408Z,7.84
2023-02-18T03:26:40.398Z,7.99
2023-02-18T03:29:09.052Z,7.65
2023-02-18T03:31:37.355Z,7.53
2023-02-18T03:34:12.678Z,7.82
2023-02-18T03:36:41.119Z,8.95
2023-02-18T03:39:10.969Z,8.45
2023-02-18T03:41:37.902Z,8.38
2023-02-18T03:44:06.963Z,8.22
2023-02-18T03:46:34.711Z,8.05
2023-02-18T03:49:01.589Z,7.99
2023-02-18T03:51:28.379Z,8.48
2023-02-18T03:53:55.157Z,8.45
2023-02-18T03:56:21.914Z,8.17
2023-02-18T03:58:48.685Z,7.82
2023-02-18T04:01:15.658Z,7.89
2023-02-18T04:03:42.425Z,8.37
2023-02-18T04:06:09.629Z,7.70
2023-02-18T04:08:37.072Z,8.42
2023-02-18T04:11:05.214Z,8.94
2023-02-18T04:13:32.015Z,9.02
2023-02-18T04:15:58.810Z,8.16
2023-02-18T04:18:25.589Z,8.59
2023-02-18T04:20:52.346Z,8.36
2023-02-18T04:23:19.121Z,8.45
2023-02-18T04:25:45.871Z,8.81
2023-02-18T04:28:15.450Z,8.17
2023-02-18T04:30:42.939Z,9.34
2023-02-18T04:33:09.952Z,8.93
2023-02-18T04:35:37.140Z,8.30
2023-02-18T04:38:04.313Z,8.28
2023-02-18T04:40:31.039Z,8.64
2023-02-18T04:42:58.922Z,7.97
2023-02-18T04:45:26.909Z,7.82
2023-02-18T04:47:54.381Z,7.77
2023-02-18T04:50:21.819Z,7.52
2023-02-18T04:52:48.561Z,7.34
2023-02-18T04:55:15.331Z,6.90
2023-02-18T04:57:42.161Z,6.55
2023-02-18T05:00:11.416Z,6.94
2023-02-18T05:02:38.131Z,8.24
2023-02-18T05:05:04.926Z,8.07
2023-02-18T05:07:31.650Z,7.57
2023-02-18T05:09:58.309Z,7.21
2023-02-18T05:12:25.047Z,6.69
2023-02-18T05:14:51.730Z,6.67
2023-02-18T05:17:18.524Z,6.78
2023-02-18T05:19:45.280Z,6.82
2023-02-18T05:22:11.901Z,7.28
2023-02-18T05:24:38.464Z,8.12
2023-02-18T05:27:05.102Z,8.08
2023-02-18T05:29:31.747Z,7.71
2023-02-18T05:31:58.366Z,7.57
2023-02-18T05:34:24.967Z,7.76
2023-02-18T05:36:51.795Z,7.97
2023-02-18T05:39:18.421Z,7.90
2023-02-18T05:41:44.985Z,7.95
2023-02-18T05:44:30.043Z,8.22
2023-02-18T05:46:59.862Z,8.73
2023-02-18T05:49:26.794Z,8.20
2023-02-18T05:51:53.446Z,8.25
2023-02-18T05:54:20.260Z,8.13
2023-02-18T05:56:47.006Z,7.85
2023-02-18T05:59:13.892Z,8.34
2023-02-18T06:01:40.856Z,8.06
2023-02-18T06:04:07.744Z,8.43
2023-02-18T06:06:34.864Z,8.82
2023-02-18T06:09:01.720Z,8.35
2023-02-18T06:11:28.330Z,8.02
2023-02-18T06:13:54.969Z,8.08
2023-02-18T06:16:21.731Z,8.79
2023-02-18T06:18:48.346Z,8.63
2023-02-18T06:21:15.076Z,7.80
2023-02-18T06:23:41.779Z,7.50
2023-02-18T06:26:08.742Z,7.53
2023-02-18T06:28:35.759Z,7.77
2023-02-18T06:31:02.753Z,8.16
2023-02-18T06:33:29.771Z,8.48
2023-02-18T06:36:02.814Z,8.77
2023-02-18T06:38:29.443Z,8.38
2023-02-18T06:40:56.177Z,8.50
2023-02-18T06:43:22.853Z,8.90
2023-02-18T06:45:49.525Z,9.03
2023-02-18T06:48:17.054Z,8.25
2023-02-18T06:50:44.490Z,8.19
2023-02-18T06:53:11.795Z,9.27
2023-02-18T06:55:39.027Z,9.31
2023-02-18T06:58:05.651Z,9.63
2023-02-18T07:00:32.367Z,9.30
2023-02-18T07:02:59.129Z,8.84
2023-02-18T07:05:26.038Z,8.60
2023-02-18T07:07:52.639Z,9.38
2023-02-18T07:10:19.454Z,9.43
2023-02-18T07:12:46.098Z,9.63
2023-02-18T07:15:13.097Z,9.36
2023-02-18T07:17:39.713Z,9.88
2023-02-18T07:20:07.128Z,10.01
2023-02-18T07:22:33.763Z,9.83
2023-02-18T07:25:00.446Z,10.25
2023-02-18T07:27:27.183Z,10.30
2023-02-18T07:29:54.018Z,10.31
2023-02-18T07:32:20.692Z,10.71
2023-02-18T07:34:47.310Z,10.74
2023-02-18T07:37:14.197Z,10.94
2023-02-18T07:39:43.915Z,10.99
2023-02-18T07:42:14.381Z,11.03
2023-02-18T07:44:41.807Z,11.03
2023-02-18T07:47:11.191Z,11.17
2023-02-18T07:49:37.875Z,11.02
2023-02-18T07:52:05.606Z,10.97
2023-02-18T07:54:32.696Z,10.97
2023-02-18T07:56:59.389Z,11.51
2023-02-18T07:59:26.014Z,12.08
2023-02-18T08:01:52.842Z,12.58
2023-02-18T08:04:19.577Z,12.53
2023-02-18T08:06:47.973Z,12.91
2023-02-18T08:09:14.801Z,13.22
2023-02-18T08:11:43.076Z,13.43
2023-02-18T08:14:09.916Z,13.60
2023-02-18T08:16:36.762Z,13.64
2023-02-18T08:19:04.212Z,13.84
2023-02-18T08:21:31.392Z,13.94
2023-02-18T08:23:59.304Z,14.35
2023-02-18T08:26:26.487Z,14.49
2023-02-18T08:28:53.474Z,14.70
2023-02-18T08:31:25.668Z,14.49
2023-02-18T08:33:54.528Z,14.47
2023-02-18T08:36:22.263Z,15.06
2023-02-18T08:38:49.388Z,14.65
2023-02-18T08:41:16.629Z,14.64
2023-02-18T08:43:43.591Z,15.16
2023-02-18T08:46:15.769Z,15.34
2023-02-18T08:48:43.708Z,15.34
2023-02-18T08:51:22.487Z,15.64
2023-02-18T08:53:50.018Z,16.44
2023-02-18T08:56:17.801Z,16.76
2023-02-18T08:58:44.855Z,16.52
2023-02-18T09:01:13.572Z,15.95
2023-02-18T09:03:40.740Z,15.01
2023-02-18T09:06:07.896Z,16.28
2023-02-18T09:08:34.942Z,16.35
2023-02-18T09:11:04.964Z,15.51
2023-02-18T09:13:33.490Z,16.19
2023-02-18T09:16:09.503Z,15.52
2023-02-18T09:18:36.813Z,15.53
2023-02-18T09:21:06.099Z,15.29
2023-02-18T09:23:37.168Z,15.47
2023-02-18T09:26:09.332Z,15.72
2023-02-18T09:28:37.236Z,15.71
2023-02-18T09:31:14.324Z,15.20
2023-02-18T09:33:45.816Z,15.80
2023-02-18T09:36:12.948Z,16.92
2023-02-18T09:38:39.772Z,16.35
2023-02-18T09:41:16.011Z,15.76
2023-02-18T09:43:46.611Z,15.35
2023-02-18T09:46:21.358Z,15.25
2023-02-18T09:48:48.730Z,15.06
2023-02-18T09:51:16.462Z,14.92
2023-02-18T09:53:47.471Z,15.63
2023-02-18T09:56:20.059Z,15.87
2023-02-18T09:58:47.994Z,16.34
2023-02-18T10:01:41.015Z,15.85
2023-02-18T10:04:14.659Z,15.71
2023-02-18T10:06:41.528Z,15.59
2023-02-18T10:09:19.926Z,15.52
2023-02-18T10:11:49.852Z,15.41
2023-02-18T10:14:16.806Z,15.46
2023-02-18T10:16:44.231Z,15.63
2023-02-18T10:19:16.823Z,16.06
2023-02-18T10:21:43.920Z,15.67
2023-02-18T10:24:22.932Z,16.17
2023-02-18T10:26:50.160Z,15.81
2023-02-18T10:29:21.841Z,15.63
2023-02-18T10:31:55.822Z,16.21
2023-02-18T10:34:43.536Z,16.66
2023-02-18T10:37:28.918Z,16.26
2023-02-18T10:40:04.768Z,16.88
2023-02-18T10:43:19.171Z,17.04
2023-02-18T10:46:07.530Z,16.52
2023-02-18T10:48:49.416Z,17.33
2023-02-18T10:51:22.812Z,16.81
2023-02-18T10:53:51.441Z,17.10
2023-02-18T10:56:38.574Z,16.85
2023-02-18T10:59:09.905Z,18.08
2023-02-18T11:01:36.784Z,18.51
2023-02-18T11:04:16.676Z,18.15
2023-02-18T11:06:48.972Z,17.89
2023-02-18T11:09:33.842Z,18.15
2023-02-18T11:12:31.975Z,17.43
2023-02-18T11:15:10.119Z,18.19
2023-02-18T11:17:40.228Z,18.15
2023-02-18T11:20:27.032Z,18.40
2023-02-18T11:23:18.007Z,18.30
2023-02-18T11:26:00.782Z,18.57
2023-02-18T11:28:46.992Z,19.32
2023-02-18T11:31:21.948Z,19.28
2023-02-18T11:33:51.554Z,18.97
2023-02-18T11:36:26.005Z,19.01
2023-02-18T11:38:57.537Z,18.73
2023-02-18T11:42:03.743Z,18.71
2023-02-18T11:44:36.288Z,18.25
2023-02-18T11:47:06.607Z,18.43
2023-02-18T11:49:35.018Z,17.91
2023-02-18T11:52:22.564Z,17.63
2023-02-18T11:55:08.424Z,18.01
2023-02-18T11:57:38.385Z,18.19
2023-02-18T12:00:31.720Z,17.86
2023-02-18T12:02:58.750Z,18.06
2023-02-18T12:05:27.388Z,18.13
2023-02-18T12:08:06.105Z,18.59
2023-02-18T12:10:42.647Z,18.63
2023-02-18T12:13:50.924Z,17.77
2023-02-18T12:16:23.529Z,18.22
2023-02-18T12:18:53.479Z,17.99
2023-02-18T12:21:35.480Z,18.68
2023-02-18T12:24:12.088Z,19.29
2023-02-18T12:26:54.807Z,18.97
2023-02-18T12:29:36.577Z,18.79
2023-02-18T12:32:09.462Z,19.53
2023-02-18T12:34:49.400Z,18.67
2023-02-18T12:37:16.179Z,18.66
2023-02-18T12:40:21.259Z,17.89
2023-02-18T12:43:15.196Z,18.35
2023-02-18T12:45:41.864Z,17.90
2023-02-18T12:48:15.757Z,18.44
2023-02-18T12:51:19.736Z,18.24
2023-02-18T12:54:12.571Z,18.29
2023-02-18T12:56:55.179Z,17.49
2023-02-18T12:59:27.851Z,17.83
2023-02-18T13:02:31.241Z,17.54
2023-02-18T13:05:13.117Z,17.27
2023-02-18T13:07:51.821Z,17.36
2023-02-18T13:10:21.427Z,17.12
2023-02-18T13:13:21.685Z,17.23
2023-02-18T13:16:00.397Z,17.06
2023-02-18T13:18:34.597Z,16.81
2023-02-18T13:21:06.022Z,16.78
2023-02-18T13:23:43.800Z,17.41
2023-02-18T13:26:14.117Z,17.00
2023-02-18T13:28:52.163Z,17.34
2023-02-18T13:31:32.123Z,17.63
2023-02-18T13:34:11.150Z,17.65
2023-02-18T13:36:52.793Z,17.70
2023-02-18T13:39:21.726Z,17.28
2023-02-18T13:41:50.828Z,17.30
2023-02-18T13:44:23.618Z,17.73
2023-02-18T13:46:59.073Z,17.91
2023-02-18T13:49:37.658Z,17.60
2023-02-18T13:52:04.828Z,17.76
2023-02-18T13:54:45.121Z,17.98
2023-02-18T13:57:21.579Z,18.26
2023-02-18T13:59:58.379Z,18.17
2023-02-18T14:02:25.370Z,18.15
2023-02-18T14:05:15.794Z,18.22
2023-02-18T14:07:50.971Z,18.09
2023-02-18T14:10:18.377Z,18.13
2023-02-18T14:12:57.215Z,17.35
2023-02-18T14:15:23.936Z,17.89
2023-02-18T14:18:13.147Z,17.59
2023-02-18T14:20:39.769Z,17.41
2023-02-18T14:23:18.712Z,17.56
2023-02-18T14:25:53.742Z,17.75
2023-02-18T14:28:38.494Z,16.75
2023-02-18T14:31:30.916Z,16.46
2023-02-18T14:34:09.903Z,16.26
2023-02-18T14:36:46.653Z,15.69
2023-02-18T14:39:49.896Z,15.83
2023-02-18T14:42:28.864Z,15.93
2023-02-18T14:45:10.038Z,15.66
2023-02-18T14:47:42.706Z,15.20
2023-02-18T14:50:15.716Z,14.95
2023-02-18T14:52:48.779Z,14.89
2023-02-18T14:55:55.038Z,14.37
2023-02-18T14:58:29.832Z,14.65
2023-02-18T15:00:56.799Z,14.40
2023-02-18T15:03:23.900Z,14.08
2023-02-18T15:05:51.510Z,13.76
2023-02-18T15:08:25.673Z,13.80
2023-02-18T15:11:04.342Z,13.54
2023-02-18T15:13:36.741Z,13.28
2023-02-18T15:16:09.317Z,12.56
2023-02-18T15:18:44.468Z,11.86
2023-02-18T15:21:32.069Z,11.68
2023-02-18T15:24:21.388Z,11.14
2023-02-18T15:26:52.209Z,10.95
2023-02-18T15:29:24.662Z,10.98
2023-02-18T15:31:51.577Z,10.94
2023-02-18T15:34:24.404Z,10.45
2023-02-18T15:36:52.666Z,10.82
2023-02-18T15:39:19.383Z,10.70
2023-02-18T15:41:46.514Z,10.61
2023-02-18T15:44:20.822Z,10.61
2023-02-18T15:46:47.709Z,10.38
2023-02-18T15:49:16.397Z,10.55
2023-02-18T15:51:43.831Z,10.12
2023-02-18T15:54:16.882Z,10.07
2023-02-18T15:56:45.884Z,9.97
2023-02-18T15:59:28.499Z,9.82
2023-02-18T16:02:03.587Z,10.04
2023-02-18T16:04:33.794Z,10.47
2023-02-18T16:07:05.702Z,10.47
2023-02-18T16:09:34.016Z,10.10
2023-02-18T16:12:05.821Z,9.78
2023-02-18T16:14:47.345Z,9.77
2023-02-18T16:17:25.374Z,9.64
2023-02-18T16:20:04.760Z,9.38
2023-02-18T16:22:32.336Z,9.18
2023-02-18T16:25:09.191Z,9.05
2023-02-18T16:27:38.058Z,8.83
2023-02-18T16:30:16.583Z,8.47
2023-02-18T16:32:43.834Z,8.49
2023-02-18T16:35:11.713Z,8.71
2023-02-18T16:37:41.602Z,8.94
2023-02-18T16:40:23.152Z,8.64
2023-02-18T16:42:50.327Z,8.53
2023-02-18T16:45:17.523Z,8.36
2023-02-18T16:47:48.956Z,8.52
2023-02-18T16:50:21.412Z,9.03
2023-02-18T16:52:49.389Z,8.66
2023-02-18T16:55:21.645Z,8.80
2023-02-18T16:57:48.514Z,8.72
2023-02-18T17:00:16.937Z,8.59
2023-02-18T17:02:46.522Z,8.40
2023-02-18T17:05:26.949Z,8.15
2023-02-18T17:07:54.988Z,7.73
2023-02-18T17:10:21.747Z,7.77
2023-02-18T17:12:48.736Z,7.46
2023-02-18T17:15:31.795Z,7.78
2023-02-18T17:17:59.918Z,8.12
2023-02-18T17:20:31.576Z,7.76
2023-02-18T17:22:58.703Z,7.32
2023-02-18T17:25:45.724Z,7.55
2023-02-18T17:28:12.535Z,7.53
2023-02-18T17:30:40.868Z,7.39
2023-02-18T17:33:08.626Z,7.41
2023-02-18T17:35:35.424Z,7.78
2023-02-18T17:38:02.279Z,7.96
2023-02-18T17:40:29.477Z,8.73
2023-02-18T17:42:56.768Z,8.53
2023-02-18T17:45:29.907Z,9.58
2023-02-18T17:47:57.334Z,10.69
2023-02-18T17:50:24.517Z,10.68
2023-02-18T17:52:51.166Z,10.76
2023-02-18T17:55:25.131Z,10.99
2023-02-18T17:57:52.344Z,11.51
2023-02-18T18:00:30.825Z,11.62
2023-02-18T18:02:57.671Z,11.64
2023-02-18T18:05:35.812Z,11.45
2023-02-18T18:08:03.815Z,11.15
2023-02-18T18:10:32.813Z,11.54
2023-02-18T18:13:02.020Z,11.48
2023-02-18T18:15:36.865Z,11.32
2023-02-18T18:18:04.163Z,10.79
2023-02-18T18:20:32.092Z,10.56
2023-02-18T18:23:00.480Z,10.82
2023-02-18T18:25:41.303Z,8.92
2023-02-18T18:28:09.166Z,7.94
2023-02-18T18:30:41.502Z,8.10
2023-02-18T18:33:32.325Z,7.42
2023-02-18T18:36:00.058Z,6.86
2023-02-18T18:38:28.288Z,7.18
2023-02-18T18:40:55.676Z,7.41
2023-02-18T18:43:32.759Z,7.21
2023-02-18T18:46:00.450Z,6.90
2023-02-18T18:48:27.591Z,6.48
2023-02-18T18:50:54.827Z,6.62
2023-02-18T18:53:26.702Z,6.58
2023-02-18T18:55:55.722Z,6.54
2023-02-18T18:58:24.621Z,6.85
2023-02-18T19:00:54.308Z,6.70
2023-02-18T19:03:22.768Z,6.37
2023-02-18T19:05:49.898Z,6.40
2023-02-18T19:08:18.089Z,6.45
2023-02-18T19:10:47.073Z,6.73
2023-02-18T19:13:17.562Z,6.52
2023-02-18T19:15:44.809Z,6.26
2023-02-18T19:18:17.558Z,6.13
2023-02-18T19:20:44.613Z,6.17
2023-02-18T19:23:11.403Z,6.35
2023-02-18T19:25:38.854Z,6.50
2023-02-18T19:28:06.050Z,6.31
2023-02-18T19:30:35.533Z,6.24
2023-02-18T19:33:04.100Z,6.29
2023-02-18T19:35:31.663Z,6.34
2023-02-18T19:37:58.647Z,6.33
2023-02-18T19:40:28.598Z,6.21
2023-02-18T19:42:55.540Z,6.22
2023-02-18T19:45:22.745Z,6.28
2023-02-18T19:47:56.999Z,6.45
2023-02-18T19:50:25.149Z,6.71
2023-02-18T19:52:55.680Z,6.64
2023-02-18T19:55:22.741Z,6.68
2023-02-18T19:57:50.689Z,6.93
2023-02-18T20:00:19.049Z,6.73
2023-02-18T20:02:46.139Z,6.41
2023-02-18T20:05:13.660Z,6.33
2023-02-18T20:07:46.252Z,6.48
2023-02-18T20:10:18.016Z,6.60
2023-02-18T20:12:44.620Z,6.94
2023-02-18T20:15:11.466Z,6.81
2023-02-18T20:17:39.461Z,6.66
2023-02-18T20:20:07.537Z,6.20
2023-02-18T20:22:34.467Z,6.14
2023-02-18T20:25:01.198Z,5.98
2023-02-18T20:27:27.914Z,6.19
2023-02-18T20:29:54.528Z,6.69
2023-02-18T20:32:21.291Z,6.47
2023-02-18T20:34:48.149Z,6.33
2023-02-18T20:37:14.890Z,6.05
2023-02-18T20:39:41.749Z,6.18
2023-02-18T20:42:16.251Z,6.50
2023-02-18T20:44:44.132Z,6.55
2023-02-18T20:47:12.896Z,6.33
2023-02-18T20:49:41.110Z,6.00
2023-02-18T20:52:10.861Z,6.17
2023-02-18T20:54:38.346Z,6.26
2023-02-18T20:57:04.974Z,6.24
2023-02-18T20:59:33.441Z,6.34
2023-02-18T21:02:00.971Z,6.06
2023-02-18T21:04:27.772Z,6.29
2023-02-18T21:06:55.398Z,6.37
2023-02-18T21:09:22.313Z,6.27
2023-02-18T21:11:49.258Z,6.46
2023-02-18T21:14:16.162Z,6.42
2023-02-18T21:16:43.048Z,6.06
2023-02-18T21:19:13.804Z,6.57
2023-02-18T21:21:41.100Z,7.05
2023-02-18T21:24:08.100Z,6.76
2023-02-18T21:26:35.136Z,6.56
2023-02-18T21:29:05.286Z,6.14
2023-02-18T21:31:34.963Z,6.26
2023-02-18T21:34:02.773Z,6.17
2023-02-18T21:36:31.386Z,6.11
2023-02-18T21:39:01.406Z,6.59
2023-02-18T21:41:29.064Z,6.30
2023-02-18T21:43:55.709Z,6.40
2023-02-18T21:46:24.945Z,6.47
2023-02-18T21:49:06.047Z,6.37
2023-02-18T21:52:02.285Z,6.43
2023-02-18T21:54:31.581Z,7.26
2023-02-18T21:56:59.401Z,7.34
2023-02-18T21:59:27.941Z,7.61
2023-02-18T22:01:55.133Z,7.48
2023-02-18T22:04:21.962Z,7.19
2023-02-18T22:06:48.620Z,6.95
2023-02-18T22:09:15.231Z,6.44
2023-02-18T22:11:42.879Z,6.36
2023-02-18T22:14:14.029Z,6.16
2023-02-18T22:16:41.211Z,6.52
2023-02-18T22:19:08.838Z,6.63
2023-02-18T22:21:35.630Z,6.58
2023-02-18T22:24:03.786Z,6.24
2023-02-18T22:26:30.359Z,6.20
2023-02-18T22:28:58.598Z,6.15
2023-02-18T22:31:27.538Z,6.43
2023-02-18T22:33:55.168Z,6.34
2023-02-18T22:36:23.662Z,6.62
2023-02-18T22:38:50.753Z,6.73
2023-02-18T22:41:18.966Z,6.44
2023-02-18T22:43:45.906Z,6.06
2023-02-18T22:46:18.146Z,6.11
2023-02-18T22:48:44.808Z,6.07
2023-02-18T22:51:17.696Z,5.92
2023-02-18T22:53:44.682Z,5.93
2023-02-18T22:56:16.521Z,5.89
2023-02-18T22:58:44.130Z,5.80
2023-02-18T23:01:37.965Z,5.97
2023-02-18T23:04:15.290Z,6.23
2023-02-18T23:06:43.763Z,6.43
2023-02-18T23:09:17.031Z,6.48
2023-02-18T23:11:43.852Z,6.43
2023-02-18T23:14:19.798Z,6.46
2023-02-18T23:17:13.398Z,6.51
2023-02-18T23:19:43.679Z,6.65
2023-02-18T23:22:12.122Z,6.83
2023-02-18T23:24:40.909Z,6.87
2023-02-18T23:27:10.252Z,6.60
2023-02-18T23:29:37.324Z,6.67
2023-02-18T23:32:04.817Z,6.64
2023-02-18T23:34:31.563Z,6.92
2023-02-18T23:36:58.521Z,7.02
2023-02-18T23:39:25.955Z,6.95
2023-02-18T23:41:52.883Z,8.36
2023-02-18T23:44:21.526Z,8.27
2023-02-18T23:46:48.346Z,9.18
2023-02-18T23:49:20.107Z,8.95
2023-02-18T23:51:46.782Z,9.35
2023-02-18T23:54:13.390Z,9.50
2023-02-18T23:56:40.516Z,9.37
2023-02-18T23:59:07.243Z,9.28
